createdAt,value
2022-12-06T00:01:15.404Z,26.63
2022-12-06T00:06:12.633Z,24.52
2022-12-06T00:08:39.894Z,24.33
2022-12-06T00:11:10.288Z,24.67
2022-12-06T00:13:37.490Z,24.30
2022-12-06T00:16:06.824Z,22.73
2022-12-06T00:18:35.646Z,24.60
2022-12-06T00:21:25.307Z,24.00
2022-12-06T00:23:55.056Z,23.38
2022-12-06T00:26:23.169Z,23.42
2022-12-06T00:28:54.083Z,24.17
2022-12-06T00:31:22.603Z,22.95
2022-12-06T00:33:49.908Z,23.63
2022-12-06T00:36:22.665Z,23.13
2022-12-06T00:38:50.275Z,24.15
2022-12-06T00:41:19.715Z,23.05
2022-12-06T00:43:47.097Z,24.50
2022-12-06T00:46:17.432Z,23.35
2022-12-06T00:48:45.551Z,21.77
2022-12-06T00:51:13.553Z,22.27
2022-12-06T00:53:40.571Z,23.67
2022-12-06T00:56:07.556Z,22.05
2022-12-06T00:58:34.516Z,22.88
2022-12-06T01:01:21.640Z,21.60
2022-12-06T01:03:53.509Z,22.13
2022-12-06T01:06:25.977Z,21.52
2022-12-06T01:08:54.832Z,21.70
2022-12-06T01:11:22.687Z,20.35
2022-12-06T01:13:50.608Z,20.25
2022-12-06T01:16:21.140Z,20.85
2022-12-06T01:18:51.557Z,19.80
2022-12-06T01:21:19.693Z,19.45
2022-12-06T01:23:47.057Z,19.80
2022-12-06T01:26:20.555Z,20.73
2022-12-06T01:28:47.931Z,18.95
2022-12-06T01:31:15.650Z,19.42
2022-12-06T01:33:43.496Z,18.75
2022-12-06T01:36:16.527Z,18.90
2022-12-06T01:38:43.237Z,18.35
2022-12-06T01:41:10.253Z,20.08
2022-12-06T01:43:42.645Z,19.80
2022-12-06T01:46:48.652Z,18.98
2022-12-06T01:49:20.821Z,19.52
2022-12-06T01:51:57.798Z,19.17
2022-12-06T01:54:25.654Z,18.50
2022-12-06T01:56:55.597Z,19.13
2022-12-06T01:59:23.380Z,18.23
2022-12-06T02:01:50.417Z,18.80
2022-12-06T02:04:18.773Z,16.73
2022-12-06T02:06:46.245Z,16.88
2022-12-06T02:09:15.308Z,18.77
2022-12-06T02:11:43.601Z,17.05
2022-12-06T02:14:15.253Z,19.60
2022-12-06T02:16:57.382Z,18.05
2022-12-06T02:19:48.637Z,17.90
2022-12-06T02:22:43.459Z,17.65
2022-12-06T02:25:34.211Z,16.92
2022-12-06T02:28:07.165Z,15.63
2022-12-06T02:30:57.511Z,15.20
2022-12-06T02:33:47.332Z,15.40
2022-12-06T02:36:21.635Z,14.63
2022-12-06T02:39:03.267Z,15.43
2022-12-06T02:41:44.056Z,15.57
2022-12-06T02:44:20.656Z,16.08
2022-12-06T02:46:49.916Z,16.42
2022-12-06T02:49:18.466Z,16.30
2022-12-06T02:51:47.557Z,16.70
2022-12-06T02:54:15.856Z,16.33
2022-12-06T02:56:42.556Z,17.00
2022-12-06T02:59:10.464Z,16.60
2022-12-06T03:01:43.560Z,17.73
2022-12-06T03:04:32.440Z,17.30
2022-12-06T03:07:21.827Z,15.55
2022-12-06T03:10:15.917Z,17.30
2022-12-06T03:12:56.549Z,17.85
2022-12-06T03:15:47.747Z,17.30
2022-12-06T03:18:22.077Z,17.13
2022-12-06T03:20:56.583Z,18.50
2022-12-06T03:23:35.805Z,18.42
2022-12-06T03:26:04.211Z,18.00
2022-12-06T03:28:31.864Z,17.42
2022-12-06T03:31:03.133Z,18.98
2022-12-06T03:33:33.485Z,19.48
2022-12-06T03:36:01.187Z,18.67
2022-12-06T03:38:34.308Z,18.38
2022-12-06T03:41:05.611Z,19.10
2022-12-06T03:43:33.495Z,20.77
2022-12-06T03:46:12.518Z,18.65
2022-12-06T03:48:50.638Z,18.88
2022-12-06T03:51:28.266Z,17.27
2022-12-06T03:53:59.493Z,16.95
2022-12-06T03:56:26.955Z,19.55
2022-12-06T03:58:53.806Z,18.98
2022-12-06T04:01:20.675Z,18.48
2022-12-06T04:03:47.617Z,19.55
2022-12-06T04:06:14.802Z,19.40
2022-12-06T04:08:41.768Z,20.08
2022-12-06T04:11:08.498Z,20.20
2022-12-06T04:13:35.763Z,18.50
2022-12-06T04:16:02.824Z,19.65
2022-12-06T04:18:29.935Z,20.17
2022-12-06T04:21:19.023Z,20.83
2022-12-06T04:23:48.378Z,20.60
2022-12-06T04:26:18.281Z,18.83
2022-12-06T04:29:03.592Z,20.33
2022-12-06T04:31:49.242Z,19.60
2022-12-06T04:34:35.459Z,18.70
2022-12-06T04:37:21.522Z,19.85
2022-12-06T04:39:48.303Z,19.42
2022-12-06T04:42:33.398Z,18.85
2022-12-06T04:45:00.231Z,19.40
2022-12-06T04:47:26.978Z,20.27
2022-12-06T04:49:54.019Z,18.70
2022-12-06T04:52:20.895Z,20.45
2022-12-06T04:54:47.598Z,19.75
2022-12-06T04:57:16.890Z,19.27
2022-12-06T04:59:46.189Z,18.30
2022-12-06T05:02:15.634Z,19.50
2022-12-06T05:04:42.683Z,18.63
2022-12-06T05:07:09.788Z,19.02
2022-12-06T05:09:36.694Z,18.70
2022-12-06T05:12:03.792Z,17.52
2022-12-06T05:14:30.612Z,21.95
2022-12-06T05:16:58.894Z,21.13
2022-12-06T05:19:25.840Z,22.45
2022-12-06T05:21:52.566Z,21.60
2022-12-06T05:24:19.282Z,22.02
2022-12-06T05:26:46.079Z,20.75
2022-12-06T05:29:12.806Z,21.83
2022-12-06T05:31:39.603Z,20.63
2022-12-06T05:34:06.362Z,24.85
2022-12-06T05:36:33.181Z,24.15
2022-12-06T05:38:59.964Z,24.77
2022-12-06T05:41:26.733Z,24.23
2022-12-06T05:43:53.539Z,25.58
2022-12-06T05:46:20.432Z,24.80
2022-12-06T05:48:47.214Z,25.40
2022-12-06T05:51:14.446Z,25.27
2022-12-06T05:53:41.399Z,30.02
2022-12-06T05:56:10.890Z,26.00
2022-12-06T05:58:38.301Z,25.88
2022-12-06T06:01:07.391Z,24.75
2022-12-06T06:03:34.869Z,24.00
2022-12-06T06:06:02.508Z,24.75
2022-12-06T06:08:30.793Z,25.55
2022-12-06T06:10:58.297Z,26.80
2022-12-06T06:13:25.063Z,25.88
2022-12-06T06:15:51.801Z,25.63
2022-12-06T06:18:19.420Z,25.50
2022-12-06T06:20:51.989Z,25.73
2022-12-06T06:23:20.289Z,24.52
2022-12-06T06:25:47.116Z,27.02
2022-12-06T06:28:14.354Z,23.85
2022-12-06T06:30:41.137Z,24.20
2022-12-06T06:33:08.043Z,24.17
2022-12-06T06:35:34.876Z,24.67
2022-12-06T06:38:02.091Z,23.73
2022-12-06T06:40:29.797Z,26.20
2022-12-06T06:42:57.345Z,21.60
2022-12-06T06:45:28.640Z,25.33
2022-12-06T06:47:55.861Z,24.90
2022-12-06T06:50:22.602Z,23.48
2022-12-06T06:52:49.439Z,23.05
2022-12-06T06:55:16.271Z,23.17
2022-12-06T06:57:42.996Z,22.10
2022-12-06T07:00:10.332Z,23.70
2022-12-06T07:02:39.513Z,22.65
2022-12-06T07:05:07.065Z,23.63
2022-12-06T07:07:33.900Z,22.15
2022-12-06T07:10:01.178Z,22.98
2022-12-06T07:12:28.207Z,21.65
2022-12-06T07:14:55.123Z,21.90
2022-12-06T07:17:21.878Z,24.98
2022-12-06T07:19:48.655Z,20.88
2022-12-06T07:22:15.668Z,25.42
2022-12-06T07:24:46.571Z,20.70
2022-12-06T07:27:16.160Z,22.77
2022-12-06T07:29:42.905Z,21.60
2022-12-06T07:32:09.638Z,23.85
2022-12-06T07:34:36.355Z,22.42
2022-12-06T07:37:06.364Z,21.52
2022-12-06T07:39:33.132Z,21.15
2022-12-06T07:42:18.559Z,20.35
2022-12-06T07:45:05.468Z,21.00
2022-12-06T07:47:37.190Z,21.50
2022-12-06T07:50:06.220Z,21.48
2022-12-06T07:52:34.523Z,22.35
2022-12-06T07:55:01.734Z,21.70
2022-12-06T07:57:28.652Z,20.15
2022-12-06T07:59:55.812Z,21.65
2022-12-06T08:02:25.695Z,20.88
2022-12-06T08:04:53.278Z,20.80
2022-12-06T08:07:20.968Z,20.55
2022-12-06T08:09:48.017Z,20.65
2022-12-06T08:12:15.191Z,20.52
2022-12-06T08:14:41.987Z,20.65
2022-12-06T08:17:08.808Z,20.05
2022-12-06T08:19:35.645Z,20.23
2022-12-06T08:22:02.953Z,20.83
2022-12-06T08:24:29.870Z,20.38
2022-12-06T08:26:56.928Z,20.40
2022-12-06T08:29:23.712Z,22.33
2022-12-06T08:31:50.794Z,21.38
2022-12-06T08:34:17.605Z,21.60
2022-12-06T08:36:44.542Z,23.83
2022-12-06T08:39:12.571Z,21.73
2022-12-06T08:42:02.947Z,23.52
2022-12-06T08:44:31.987Z,23.88
2022-12-06T08:47:01.510Z,22.73
2022-12-06T08:49:30.023Z,23.63
2022-12-06T08:51:58.001Z,23.88
2022-12-06T08:54:25.559Z,22.75
2022-12-06T08:56:53.142Z,25.15
2022-12-06T08:59:20.609Z,26.55
2022-12-06T09:01:47.751Z,24.35
2022-12-06T09:04:14.902Z,26.35
2022-12-06T09:06:43.536Z,26.42
2022-12-06T09:09:12.635Z,26.08
2022-12-06T09:11:40.720Z,25.35
2022-12-06T09:14:09.273Z,25.85
2022-12-06T09:16:36.587Z,26.92
2022-12-06T09:19:03.926Z,27.23
2022-12-06T09:21:30.805Z,25.83
2022-12-06T09:23:58.842Z,24.92
2022-12-06T09:26:26.444Z,28.05
2022-12-06T09:28:55.541Z,26.25
2022-12-06T09:31:23.110Z,26.85
2022-12-06T09:33:50.290Z,26.52
2022-12-06T09:36:21.266Z,24.88
2022-12-06T09:38:51.157Z,24.45
2022-12-06T09:41:32.926Z,24.35
2022-12-06T09:44:39.917Z,25.23
2022-12-06T09:47:25.479Z,24.10
2022-12-06T09:50:13.424Z,24.17
2022-12-06T09:52:58.897Z,23.15
2022-12-06T09:55:42.180Z,22.75
2022-12-06T09:58:11.834Z,23.35
2022-12-06T10:01:01.086Z,20.88
2022-12-06T10:03:53.572Z,22.25
2022-12-06T10:06:23.342Z,21.07
2022-12-06T10:09:25.524Z,19.42
2022-12-06T10:12:38.993Z,17.45
2022-12-06T10:15:08.696Z,18.42
2022-12-06T10:17:56.559Z,18.58
2022-12-06T10:20:58.237Z,20.00
2022-12-06T10:24:02.424Z,19.63
2022-12-06T10:26:51.317Z,18.60
2022-12-06T10:29:48.858Z,18.42
2022-12-06T10:32:23.880Z,19.50
2022-12-06T10:35:13.260Z,18.17
2022-12-06T10:37:55.441Z,19.75
2022-12-06T10:40:41.042Z,19.97
2022-12-06T10:43:20.332Z,21.02
2022-12-06T10:46:55.652Z,20.55
2022-12-06T10:49:51.418Z,20.20
2022-12-06T10:52:28.093Z,19.92
2022-12-06T10:55:06.852Z,19.10
2022-12-06T10:57:42.563Z,19.45
2022-12-06T11:00:27.282Z,19.00
2022-12-06T11:03:20.409Z,18.48
2022-12-06T11:06:10.453Z,18.38
2022-12-06T11:09:10.555Z,17.33
2022-12-06T11:11:40.501Z,17.30
2022-12-06T11:14:20.386Z,18.40
2022-12-06T11:17:05.181Z,18.10
2022-12-06T11:20:15.017Z,16.98
2022-12-06T11:22:59.512Z,19.15
2022-12-06T11:25:32.916Z,16.58
2022-12-06T11:28:22.062Z,18.58
2022-12-06T11:30:54.305Z,18.00
2022-12-06T11:33:29.706Z,19.63
2022-12-06T11:35:57.495Z,19.88
2022-12-06T11:38:24.228Z,20.27
2022-12-06T11:40:51.869Z,21.75
2022-12-06T11:43:24.258Z,23.00
2022-12-06T11:45:51.396Z,22.65
2022-12-06T11:48:21.511Z,24.20
2022-12-06T11:50:49.780Z,24.48
2022-12-06T11:53:25.404Z,24.25
2022-12-06T11:55:55.899Z,23.50
2022-12-06T11:58:29.198Z,24.05
2022-12-06T12:01:02.803Z,23.25
2022-12-06T12:03:33.688Z,22.75
2022-12-06T12:06:23.369Z,21.88
2022-12-06T12:09:00.668Z,22.48
2022-12-06T12:11:31.424Z,21.70
2022-12-06T12:14:24.141Z,23.40
2022-12-06T12:16:56.471Z,20.90
2022-12-06T12:19:32.680Z,21.80
2022-12-06T12:22:13.063Z,21.40
2022-12-06T12:25:17.409Z,21.73
2022-12-06T12:27:38.632Z,21.58
2022-12-06T12:30:23.780Z,22.13
2022-12-06T12:33:08.199Z,21.58
2022-12-06T12:35:38.651Z,20.88
2022-12-06T12:38:14.976Z,20.65
2022-12-06T12:40:45.319Z,20.23
2022-12-06T12:43:11.963Z,20.13
2022-12-06T12:45:40.977Z,21.10
2022-12-06T12:48:26.689Z,19.00
2022-12-06T12:50:59.324Z,19.25
2022-12-06T12:53:38.460Z,19.48
2022-12-06T12:56:14.697Z,18.60
2022-12-06T12:58:47.264Z,19.02
2022-12-06T13:01:30.465Z,18.40
2022-12-06T13:04:15.441Z,20.45
2022-12-06T13:07:02.505Z,19.88
2022-12-06T13:09:48.013Z,18.45
2022-12-06T13:12:29.974Z,17.27
2022-12-06T13:15:10.057Z,17.40
2022-12-06T13:17:41.998Z,14.88
2022-12-06T13:20:22.222Z,14.90
2022-12-06T13:22:53.480Z,14.95
2022-12-06T13:25:20.403Z,14.10
2022-12-06T13:27:51.429Z,13.02
2022-12-06T13:30:19.816Z,11.27
2022-12-06T13:32:54.935Z,12.25
2022-12-06T13:35:44.866Z,11.40
2022-12-06T13:38:22.633Z,10.05
2022-12-06T13:40:54.951Z,10.10
2022-12-06T13:43:24.505Z,10.85
2022-12-06T13:46:16.873Z,10.23
2022-12-06T13:48:59.732Z,10.27
2022-12-06T13:51:35.369Z,9.57
2022-12-06T13:54:05.336Z,9.82
2022-12-06T13:56:35.013Z,9.43
2022-12-06T13:59:04.280Z,9.48
2022-12-06T14:01:38.424Z,10.43
2022-12-06T14:04:39.508Z,10.02
2022-12-06T14:09:47.654Z,10.65
2022-12-06T14:12:22.928Z,10.43
2022-12-06T14:15:01.403Z,11.65
2022-12-06T14:18:03.298Z,10.48
2022-12-06T14:20:33.833Z,11.00
2022-12-06T14:23:00.638Z,11.40
2022-12-06T14:25:30.355Z,10.32
2022-12-06T14:28:06.541Z,10.77
2022-12-06T14:30:33.612Z,11.07
2022-12-06T14:33:00.520Z,11.20
2022-12-06T14:35:35.268Z,10.98
2022-12-06T14:38:24.439Z,10.65
2022-12-06T14:41:10.813Z,11.25
2022-12-06T14:43:38.548Z,10.18
2022-12-06T14:46:08.003Z,10.88
2022-12-06T14:49:10.271Z,11.68
2022-12-06T14:51:41.234Z,11.07
2022-12-06T14:54:27.527Z,10.95
2022-12-06T14:56:54.471Z,10.73
2022-12-06T15:00:02.911Z,10.75
2022-12-06T15:02:22.730Z,11.82
2022-12-06T15:04:49.555Z,12.05
2022-12-06T15:07:39.165Z,11.43
2022-12-06T15:10:29.948Z,12.23
2022-12-06T15:13:16.968Z,11.10
2022-12-06T15:15:47.413Z,12.68
2022-12-06T15:18:25.981Z,11.88
2022-12-06T15:20:53.945Z,10.80
2022-12-06T15:23:36.073Z,11.73
2022-12-06T15:26:05.386Z,11.07
2022-12-06T15:28:32.296Z,11.30
2022-12-06T15:30:59.097Z,12.05
2022-12-06T15:33:27.216Z,11.57
2022-12-06T15:35:54.466Z,11.95
2022-12-06T15:38:21.634Z,11.52
2022-12-06T15:40:51.501Z,12.18
2022-12-06T15:43:33.909Z,12.27
2022-12-06T15:46:02.968Z,12.07
2022-12-06T15:48:31.369Z,13.45
2022-12-06T15:51:00.167Z,11.35
2022-12-06T15:53:29.148Z,10.88
2022-12-06T15:55:56.149Z,12.05
2022-12-06T15:58:22.964Z,11.70
2022-12-06T16:00:50.471Z,12.13
2022-12-06T16:03:17.503Z,11.60
2022-12-06T16:05:44.298Z,11.70
2022-12-06T16:08:11.130Z,11.13
2022-12-06T16:11:10.369Z,11.85
2022-12-06T16:13:24.817Z,12.27
2022-12-06T16:15:52.806Z,12.30
2022-12-06T16:18:20.240Z,12.30
2022-12-06T16:20:47.449Z,12.70
2022-12-06T16:24:11.251Z,13.68
2022-12-06T16:26:25.069Z,14.18
2022-12-06T16:28:51.823Z,14.68
2022-12-06T16:31:18.629Z,13.85
2022-12-06T16:33:45.489Z,14.40
2022-12-06T16:36:25.109Z,15.68
2022-12-06T16:38:56.099Z,15.00
2022-12-06T16:41:26.263Z,16.20
2022-12-06T16:43:53.644Z,16.05
2022-12-06T16:46:36.728Z,16.27
2022-12-06T16:51:52.231Z,14.90
2022-12-06T16:54:19.068Z,16.10
2022-12-06T16:56:46.531Z,15.95
2022-12-06T16:59:15.178Z,16.27
2022-12-06T17:01:50.227Z,16.17
2022-12-06T17:04:17.700Z,15.77
2022-12-06T17:06:44.639Z,15.13
2022-12-06T17:09:12.348Z,16.23
2022-12-06T17:11:58.730Z,16.08
2022-12-06T17:14:26.381Z,15.77
2022-12-06T17:16:54.978Z,16.63
2022-12-06T17:19:24.567Z,16.27
2022-12-06T17:21:52.559Z,17.70
2022-12-06T17:24:20.378Z,16.63
2022-12-06T17:26:47.679Z,18.55
2022-12-06T17:29:14.491Z,17.50
2022-12-06T17:31:42.567Z,19.73
2022-12-06T17:34:13.108Z,16.58
2022-12-06T17:36:40.866Z,16.85
2022-12-06T17:39:14.049Z,18.23
2022-12-06T17:41:59.216Z,17.17
2022-12-06T17:44:26.627Z,18.83
2022-12-06T17:46:53.409Z,18.70
2022-12-06T17:49:22.736Z,18.20
2022-12-06T17:51:50.299Z,17.98
2022-12-06T17:54:17.553Z,21.17
2022-12-06T17:56:46.513Z,20.52
2022-12-06T17:59:16.302Z,23.15
2022-12-06T18:02:14.553Z,21.88
2022-12-06T18:04:31.584Z,25.60
2022-12-06T18:06:58.438Z,22.42
2022-12-06T18:09:25.462Z,20.98
2022-12-06T18:11:52.202Z,19.10
2022-12-06T18:14:19.193Z,19.10
2022-12-06T18:16:46.590Z,19.08
2022-12-06T18:19:16.608Z,18.77
2022-12-06T18:21:43.981Z,18.88
2022-12-06T18:24:25.545Z,19.30
2022-12-06T18:26:55.659Z,19.98
2022-12-06T18:29:23.722Z,19.13
2022-12-06T18:31:51.924Z,20.63
2022-12-06T18:34:20.061Z,20.65
2022-12-06T18:36:47.090Z,19.85
2022-12-06T18:39:16.427Z,19.10
2022-12-06T18:41:44.606Z,19.05
2022-12-06T18:44:12.614Z,20.85
2022-12-06T18:46:42.333Z,21.45
2022-12-06T18:49:11.333Z,20.42
2022-12-06T18:51:38.755Z,22.63
2022-12-06T18:54:06.798Z,20.90
2022-12-06T18:56:35.245Z,19.30
2022-12-06T18:59:05.565Z,19.88
2022-12-06T19:01:34.022Z,20.17
2022-12-06T19:04:03.318Z,18.90
2022-12-06T19:06:35.672Z,20.67
2022-12-06T19:09:09.665Z,18.70
2022-12-06T19:11:42.221Z,17.23
2022-12-06T19:14:10.130Z,18.13
2022-12-06T19:16:45.718Z,17.00
2022-12-06T19:19:19.107Z,18.20
2022-12-06T19:21:47.600Z,18.65
2022-12-06T19:24:17.403Z,17.17
2022-12-06T19:26:44.811Z,17.55
2022-12-06T19:29:11.964Z,18.05
2022-12-06T19:31:38.777Z,18.77
2022-12-06T19:34:05.616Z,18.52
2022-12-06T19:36:32.681Z,17.92
2022-12-06T19:39:08.780Z,18.23
2022-12-06T19:41:58.813Z,17.63
2022-12-06T19:44:26.813Z,18.77
2022-12-06T19:46:53.595Z,19.38
2022-12-06T19:49:23.116Z,18.13
2022-12-06T19:51:50.459Z,18.42
2022-12-06T19:54:23.645Z,18.88
2022-12-06T19:56:53.323Z,18.33
2022-12-06T19:59:25.621Z,18.45
2022-12-06T20:01:54.129Z,20.20
2022-12-06T20:04:23.785Z,18.92
2022-12-06T20:06:52.173Z,19.83
2022-12-06T20:09:20.421Z,20.10
2022-12-06T20:12:03.116Z,21.80
2022-12-06T20:14:37.803Z,19.38
2022-12-06T20:17:10.529Z,20.60
2022-12-06T20:19:38.847Z,18.70
2022-12-06T20:22:05.818Z,20.45
2022-12-06T20:24:32.771Z,19.60
2022-12-06T20:26:59.656Z,20.10
2022-12-06T20:29:27.307Z,20.00
2022-12-06T20:31:58.078Z,20.77
2022-12-06T20:34:26.157Z,20.55
2022-12-06T20:36:53.015Z,19.35
2022-12-06T20:39:23.188Z,20.15
2022-12-06T20:41:50.813Z,18.63
2022-12-06T20:44:18.232Z,19.00
2022-12-06T20:46:45.852Z,19.27
2022-12-06T20:49:12.918Z,19.02
2022-12-06T20:51:40.271Z,19.67
2022-12-06T20:54:07.953Z,18.88
2022-12-06T20:56:37.457Z,19.95
2022-12-06T20:59:06.013Z,19.95
2022-12-06T21:01:36.334Z,17.67
2022-12-06T21:04:03.153Z,19.65
2022-12-06T21:06:29.934Z,18.60
2022-12-06T21:08:57.375Z,18.63
2022-12-06T21:11:25.592Z,17.85
2022-12-06T21:13:53.959Z,16.25
2022-12-06T21:16:31.589Z,15.82
2022-12-06T21:19:04.790Z,16.38
2022-12-06T21:21:34.641Z,17.05
2022-12-06T21:24:02.896Z,16.58
2022-12-06T21:26:30.648Z,16.98
2022-12-06T21:28:57.861Z,15.43
2022-12-06T21:31:35.978Z,15.50
2022-12-06T21:34:03.261Z,15.30
2022-12-06T21:36:30.401Z,15.52
2022-12-06T21:38:58.512Z,15.73
2022-12-06T21:41:25.543Z,15.85
2022-12-06T21:43:52.813Z,16.45
2022-12-06T21:46:22.653Z,17.42
2022-12-06T21:48:55.267Z,16.88
2022-12-06T21:51:26.994Z,17.38
2022-12-06T21:53:53.940Z,15.75
2022-12-06T21:56:24.380Z,15.93
2022-12-06T21:58:51.322Z,15.50
2022-12-06T22:01:28.337Z,15.13
2022-12-06T22:03:57.114Z,15.70
2022-12-06T22:06:24.648Z,14.98
2022-12-06T22:09:05.968Z,15.18
2022-12-06T22:11:33.517Z,15.57
2022-12-06T22:14:01.058Z,15.18
2022-12-06T22:16:28.765Z,16.15
2022-12-06T22:18:56.114Z,16.08
2022-12-06T22:21:25.464Z,16.23
2022-12-06T22:23:53.277Z,16.00
2022-12-06T22:26:22.500Z,17.15
2022-12-06T22:28:49.830Z,17.38
2022-12-06T22:31:22.532Z,17.50
2022-12-06T22:33:50.651Z,17.77
2022-12-06T22:36:18.604Z,17.17
2022-12-06T22:38:48.821Z,18.27
2022-12-06T22:41:15.573Z,16.58
2022-12-06T22:43:42.403Z,18.15
2022-12-06T22:46:12.811Z,17.52
2022-12-06T22:48:40.453Z,18.17
2022-12-06T22:51:22.929Z,17.65
2022-12-06T22:54:01.739Z,19.67
2022-12-06T22:56:29.286Z,19.15
2022-12-06T22:58:57.747Z,21.08
2022-12-06T23:01:26.842Z,19.80
2022-12-06T23:03:54.533Z,22.05
2022-12-06T23:06:23.635Z,19.80
2022-12-06T23:08:50.492Z,21.00
2022-12-06T23:11:21.758Z,22.60
2022-12-06T23:13:48.644Z,21.85
2022-12-06T23:16:17.958Z,23.05
2022-12-06T23:18:45.612Z,22.20
2022-12-06T23:21:18.366Z,24.65
2022-12-06T23:23:50.338Z,24.70
2022-12-06T23:26:19.784Z,24.60
2022-12-06T23:28:46.996Z,26.02
2022-12-06T23:31:17.646Z,24.92
2022-12-06T23:33:45.717Z,25.90
2022-12-06T23:36:15.581Z,25.60
2022-12-06T23:38:42.903Z,27.45
2022-12-06T23:41:15.622Z,27.27
2022-12-06T23:43:42.758Z,27.73
2022-12-06T23:46:12.228Z,27.85
2022-12-06T23:48:39.102Z,29.92
2022-12-06T23:51:17.490Z,30.60
2022-12-06T23:53:44.967Z,30.98
2022-12-06T23:56:14.662Z,31.92
2022-12-06T23:58:42.728Z,32.25
